Time;durP1;ratioP1;P1;durP2;ratioP2;P2;SDS_P1;SDS_P2;PMS_P1;PMS_P2;Temp;Humidity;BMP_temperature;BMP_pressure;BME280_temperature;BME280_humidity;BME280_pressure;Samples;Min_cycle;Max_cycle;Signal;HPM_P1;HPM_P2
2022/07/15 00:00:58;;;;;;;1.10;1.00;;;26.40;44.20;;;;;;5065594;28;20430;-92
2022/07/15 00:03:27;;;;;;;1.43;1.30;;;26.40;44.30;;;;;;5069085;28;20495;-93
2022/07/15 00:05:56;;;;;;;1.30;1.20;;;26.40;44.30;;;;;;5066291;28;20499;-93
2022/07/15 00:08:27;;;;;;;1.80;1.20;;;26.40;44.40;;;;;;5059452;28;20453;-93
2022/07/15 00:10:56;;;;;;;1.27;1.17;;;26.40;44.40;;;;;;5060566;28;20442;-94
2022/07/15 00:13:25;;;;;;;1.47;1.00;;;26.40;44.50;;;;;;5058444;28;20438;-95
2022/07/15 00:15:53;;;;;;;1.10;1.10;;;26.40;44.50;;;;;;5066912;28;20422;-94
2022/07/15 00:18:22;;;;;;;2.60;1.30;;;26.40;44.60;;;;;;5072309;28;20621;-94
2022/07/15 00:20:57;;;;;;;1.20;1.10;;;26.40;44.50;;;;;;5073874;28;20440;-94
2022/07/15 00:23:27;;;;;;;1.20;1.10;;;26.40;44.50;;;;;;5063486;28;20449;-92
2022/07/15 00:25:55;;;;;;;1.63;1.27;;;26.40;44.50;;;;;;5072260;28;20469;-94
2022/07/15 00:28:24;;;;;;;1.10;0.90;;;26.40;44.50;;;;;;5064027;28;20954;-93
2022/07/15 00:30:52;;;;;;;2.00;1.20;;;26.40;44.60;;;;;;5072064;28;20434;-93
2022/07/15 00:33:21;;;;;;;1.20;1.10;;;26.40;44.50;;;;;;5060358;28;21050;-94
2022/07/15 00:35:49;;;;;;;1.47;1.20;;;26.40;44.50;;;;;;5072851;28;20422;-93
2022/07/15 00:38:18;;;;;;;1.43;1.30;;;26.40;44.50;;;;;;5063525;28;20442;-95
2022/07/15 00:40:49;;;;;;;1.07;1.00;;;26.40;44.60;;;;;;5061456;28;20446;-93
2022/07/15 00:43:19;;;;;;;1.10;1.00;;;26.40;44.60;;;;;;5061456;28;20490;-93
2022/07/15 00:45:48;;;;;;;1.00;0.90;;;26.40;44.50;;;;;;5071438;28;20450;-93
2022/07/15 00:48:16;;;;;;;1.80;1.10;;;26.40;44.60;;;;;;5067717;28;20923;-93
2022/07/15 00:50:48;;;;;;;1.13;1.03;;;26.40;44.70;;;;;;5066227;28;20540;-93
2022/07/15 00:53:19;;;;;;;1.97;1.03;;;26.40;44.80;;;;;;5062851;28;20555;-94
2022/07/15 00:55:50;;;;;;;1.33;1.10;;;26.40;44.70;;;;;;5070787;28;20444;-93
2022/07/15 00:58:23;;;;;;;1.23;1.10;;;26.40;44.80;;;;;;5061186;28;20943;-92
2022/07/15 01:00:52;;;;;;;1.20;1.10;;;26.30;44.80;;;;;;5065058;28;20478;-93
2022/07/15 01:03:26;;;;;;;1.57;1.03;;;26.30;44.80;;;;;;5069333;28;20469;-92
2022/07/15 01:05:58;;;;;;;1.27;1.03;;;26.30;44.80;;;;;;5070862;28;20445;-93
2022/07/15 01:08:27;;;;;;;1.40;1.27;;;26.30;44.80;;;;;;5063162;28;20434;-93
2022/07/15 01:10:56;;;;;;;1.60;1.50;;;26.30;44.80;;;;;;5070776;28;20426;-93
2022/07/15 01:13:25;;;;;;;1.33;1.23;;;26.30;44.80;;;;;;5068825;28;20544;-93
2022/07/15 01:15:54;;;;;;;2.07;1.13;;;26.30;44.80;;;;;;5069378;28;20446;-92
2022/07/15 01:18:24;;;;;;;1.40;1.20;;;26.30;45.00;;;;;;5065124;28;20430;-93
2022/07/15 01:20:54;;;;;;;1.43;1.33;;;26.30;45.00;;;;;;5058106;28;20515;-93
2022/07/15 01:23:23;;;;;;;1.60;1.00;;;26.30;45.00;;;;;;5059702;28;20471;-93
2022/07/15 01:26:05;;;;;;;1.60;1.20;;;26.30;45.00;;;;;;5068286;28;20444;-93
2022/07/15 01:28:34;;;;;;;1.23;1.13;;;26.30;45.10;;;;;;5070281;28;20486;-93
2022/07/15 01:31:03;;;;;;;1.10;1.03;;;26.30;45.10;;;;;;5058649;28;20471;-93
2022/07/15 01:33:34;;;;;;;1.20;1.10;;;26.30;45.10;;;;;;5070785;28;20466;-94
2022/07/15 01:36:04;;;;;;;1.40;1.17;;;26.30;45.10;;;;;;5071197;28;20434;-94
2022/07/15 01:38:34;;;;;;;1.47;1.37;;;26.30;45.10;;;;;;5063540;28;20548;-93
2022/07/15 01:41:17;;;;;;;0.87;0.83;;;26.30;45.20;;;;;;5067705;28;20438;-93
2022/07/15 01:43:46;;;;;;;2.20;1.57;;;26.30;45.20;;;;;;5063884;28;20975;-93
2022/07/15 01:46:14;;;;;;;1.40;1.30;;;26.30;45.10;;;;;;5064199;28;20521;-93
2022/07/15 01:51:52;;;;;;;0.97;0.90;;;26.30;45.30;;;;;;5065071;28;20467;-94
2022/07/15 01:54:21;;;;;;;1.20;1.10;;;26.20;45.20;;;;;;5066084;28;20577;-93
2022/07/15 01:56:49;;;;;;;1.73;1.37;;;26.20;45.30;;;;;;5070896;28;20446;-93
2022/07/15 01:59:18;;;;;;;1.20;1.10;;;26.20;45.40;;;;;;5066512;28;20458;-93
2022/07/15 02:01:47;;;;;;;1.30;1.20;;;26.20;45.40;;;;;;5058266;28;20498;-92
2022/07/15 02:04:17;;;;;;;1.43;1.07;;;26.20;45.30;;;;;;5062264;28;20520;-93
2022/07/15 02:06:45;;;;;;;1.30;1.20;;;26.20;45.30;;;;;;5073658;28;20992;-93
2022/07/15 02:09:17;;;;;;;1.43;1.23;;;26.20;45.40;;;;;;5071413;28;20470;-94
2022/07/15 02:11:47;;;;;;;1.77;1.00;;;26.20;45.40;;;;;;5063867;28;20946;-94
2022/07/15 02:14:16;;;;;;;1.40;1.30;;;26.20;45.40;;;;;;5064243;28;20541;-93
2022/07/15 02:16:48;;;;;;;2.27;1.10;;;26.20;45.50;;;;;;5064814;28;20446;-92
2022/07/15 02:19:20;;;;;;;1.37;1.27;;;26.20;45.60;;;;;;5064608;28;21028;-94
2022/07/15 02:21:48;;;;;;;1.23;1.13;;;26.20;45.60;;;;;;5068535;28;20464;-92
2022/07/15 02:24:19;;;;;;;1.20;1.10;;;26.20;45.60;;;;;;5059021;28;20470;-93
2022/07/15 02:26:48;;;;;;;1.07;0.97;;;26.20;46.70;;;;;;5066587;28;20477;-94
2022/07/15 02:29:17;;;;;;;1.27;1.17;;;26.20;45.60;;;;;;5071700;28;20493;-93
2022/07/15 02:31:46;;;;;;;2.17;1.40;;;26.20;45.60;;;;;;5066393;28;20532;-94
2022/07/15 02:34:14;;;;;;;1.20;1.10;;;26.10;45.60;;;;;;5062076;28;20462;-94
2022/07/15 02:36:43;;;;;;;1.57;1.10;;;26.10;45.60;;;;;;5060364;28;20450;-95
2022/07/15 02:39:11;;;;;;;1.40;1.13;;;26.10;45.50;;;;;;5062939;28;20515;-93
2022/07/15 02:41:44;;;;;;;2.00;1.37;;;26.10;45.50;;;;;;5064391;28;20450;-93
2022/07/15 02:44:14;;;;;;;1.33;1.20;;;26.10;45.60;;;;;;5065496;28;20466;-93
2022/07/15 02:46:48;;;;;;;1.07;0.97;;;26.10;45.60;;;;;;5071896;28;20462;-94
2022/07/15 02:49:22;;;;;;;2.30;1.10;;;26.10;45.70;;;;;;5069319;28;20468;-93
2022/07/15 02:51:52;;;;;;;1.27;1.10;;;26.10;45.80;;;;;;5067986;28;20474;-93
2022/07/15 02:54:22;;;;;;;1.03;0.90;;;26.10;45.70;;;;;;5068858;28;20477;-93
2022/07/15 02:56:52;;;;;;;1.30;1.10;;;26.10;45.90;;;;;;5060909;28;20435;-93
2022/07/15 02:59:24;;;;;;;1.40;1.20;;;26.10;45.90;;;;;;5061889;28;21110;-94
2022/07/15 03:01:55;;;;;;;1.67;1.27;;;26.10;45.90;;;;;;5072402;28;20552;-93
2022/07/15 03:04:24;;;;;;;1.30;1.20;;;26.10;45.80;;;;;;5068582;28;20466;-94
2022/07/15 03:06:55;;;;;;;1.23;1.13;;;26.10;45.90;;;;;;5068777;28;20451;-94
2022/07/15 03:09:24;;;;;;;1.37;1.27;;;26.10;45.80;;;;;;5064636;28;20515;-94
2022/07/15 03:11:53;;;;;;;1.40;1.27;;;26.00;45.80;;;;;;5061678;28;20458;-93
2022/07/15 03:14:22;;;;;;;1.60;1.13;;;26.00;45.80;;;;;;5057545;28;20471;-92
2022/07/15 03:16:51;;;;;;;2.03;1.27;;;26.00;45.90;;;;;;5050600;28;20435;-95
2022/07/15 03:19:19;;;;;;;1.33;0.90;;;26.00;45.90;;;;;;5048982;28;20458;-92
2022/07/15 03:21:48;;;;;;;1.10;1.00;;;26.00;45.90;;;;;;5056950;28;20979;-94
2022/07/15 03:24:20;;;;;;;1.30;1.20;;;26.00;45.90;;;;;;5059839;28;20483;-94
2022/07/15 03:26:48;;;;;;;1.47;1.30;;;26.00;45.90;;;;;;5061283;28;20426;-94
2022/07/15 03:29:18;;;;;;;1.40;1.30;;;26.00;45.90;;;;;;5060930;28;21044;-93
2022/07/15 03:31:47;;;;;;;1.73;1.30;;;26.00;46.00;;;;;;5061515;28;20510;-93
2022/07/15 03:34:24;;;;;;;1.63;1.00;;;26.00;45.90;;;;;;5058902;28;20481;-93
2022/07/15 03:36:53;;;;;;;1.93;1.10;;;26.00;45.90;;;;;;5059866;28;20446;-94
2022/07/15 03:39:23;;;;;;;1.30;1.10;;;26.00;46.10;;;;;;5066118;28;20577;-94
2022/07/15 03:41:51;;;;;;;1.20;1.10;;;26.00;46.00;;;;;;5062632;28;20467;-95
2022/07/15 03:44:21;;;;;;;1.37;1.23;;;26.00;46.10;;;;;;5058900;28;20495;-94
2022/07/15 03:46:49;;;;;;;1.40;1.30;;;26.00;46.00;;;;;;5063490;28;20439;-94
2022/07/15 03:49:18;;;;;;;1.30;1.20;;;26.00;46.00;;;;;;5065754;28;20473;-91
2022/07/15 03:51:47;;;;;;;1.20;1.10;;;25.90;45.90;;;;;;5063381;28;20516;-93
2022/07/15 03:54:16;;;;;;;1.63;1.53;;;26.00;47.30;;;;;;5056735;28;20463;-95
2022/07/15 03:56:47;;;;;;;1.30;1.20;;;25.90;46.00;;;;;;5069733;28;20492;-94
2022/07/15 03:59:16;;;;;;;1.73;1.20;;;25.90;46.10;;;;;;5064399;28;20480;-96
2022/07/15 04:01:45;;;;;;;1.43;1.10;;;25.90;46.00;;;;;;5061271;28;20458;-93
2022/07/15 04:04:14;;;;;;;1.83;1.50;;;25.90;46.20;;;;;;5058016;28;20470;-93
2022/07/15 04:06:42;;;;;;;1.40;1.20;;;25.90;46.20;;;;;;5058102;28;20477;-94
2022/07/15 04:09:11;;;;;;;1.50;1.20;;;25.90;46.20;;;;;;5067370;28;20480;-94
2022/07/15 04:11:41;;;;;;;1.37;1.23;;;25.90;46.20;;;;;;5062991;28;20450;-93
2022/07/15 04:14:11;;;;;;;1.33;1.10;;;25.90;46.30;;;;;;5071180;28;20457;-93
2022/07/15 04:16:41;;;;;;;1.30;1.20;;;25.90;46.30;;;;;;5063105;28;20438;-94
2022/07/15 04:19:43;;;;;;;1.93;1.20;;;25.90;46.30;;;;;;5064183;28;20466;-94
2022/07/15 04:22:12;;;;;;;1.27;1.20;;;25.90;46.30;;;;;;5055274;28;20455;-93
2022/07/15 04:24:48;;;;;;;0.93;0.80;;;25.90;46.30;;;;;;5062035;28;20996;-93
2022/07/15 04:27:18;;;;;;;1.57;1.47;;;25.80;46.20;;;;;;5063503;28;20529;-94
2022/07/15 04:29:47;;;;;;;1.57;1.47;;;25.80;46.20;;;;;;5055710;28;20461;-93
2022/07/15 04:32:17;;;;;;;1.30;1.20;;;25.80;46.30;;;;;;5057067;28;20498;-93
2022/07/15 04:34:51;;;;;;;4.27;1.13;;;25.80;46.30;;;;;;5086765;22;20455;-48
2022/07/15 04:37:22;;;;;;;1.63;1.40;;;25.80;46.30;;;;;;4990457;28;20496;-47
2022/07/15 04:39:55;;;;;;;1.10;1.00;;;25.80;46.40;;;;;;4990901;28;20479;-47
2022/07/15 04:42:28;;;;;;;2.87;1.40;;;25.80;46.30;;;;;;4993517;28;20453;-48
2022/07/15 04:44:56;;;;;;;1.10;1.00;;;25.80;46.40;;;;;;4992139;28;20640;-47
2022/07/15 04:47:25;;;;;;;1.47;1.37;;;25.80;46.40;;;;;;4974110;28;20465;-48
2022/07/15 04:52:48;;;;;;;1.00;0.90;;;25.80;46.40;;;;;;4986613;28;20430;-48
2022/07/15 04:55:17;;;;;;;1.10;1.00;;;25.70;46.40;;;;;;4969898;28;20482;-47
2022/07/15 04:57:49;;;;;;;1.27;1.00;;;25.70;46.50;;;;;;4975729;28;20441;-51
2022/07/15 05:00:17;;;;;;;1.47;1.27;;;25.70;46.40;;;;;;4974683;28;20482;-48
2022/07/15 05:02:46;;;;;;;1.97;1.10;;;25.70;46.30;;;;;;4991452;28;20792;-48
2022/07/15 05:05:18;;;;;;;1.40;1.23;;;25.70;46.40;;;;;;4974945;28;20513;-48
2022/07/15 05:07:46;;;;;;;1.07;0.90;;;25.70;46.40;;;;;;4974983;28;20466;-48
2022/07/15 05:10:15;;;;;;;2.07;0.80;;;25.70;46.40;;;;;;4974096;28;20481;-48
2022/07/15 05:12:50;;;;;;;1.40;1.10;;;25.70;46.40;;;;;;4975613;28;20508;-48
2022/07/15 05:15:18;;;;;;;2.23;1.17;;;25.70;46.40;;;;;;4991626;28;20496;-46
2022/07/15 05:17:47;;;;;;;1.10;1.00;;;25.70;46.40;;;;;;4974179;28;20465;-47
2022/07/15 05:20:22;;;;;;;1.20;1.13;;;25.70;46.30;;;;;;4972629;28;20891;-47
2022/07/15 05:22:52;;;;;;;1.30;1.20;;;25.70;46.30;;;;;;4973830;28;20446;-47
2022/07/15 05:25:21;;;;;;;1.17;1.07;;;25.70;46.40;;;;;;4971934;28;20474;-48
2022/07/15 05:27:51;;;;;;;4.93;2.97;;;25.70;47.70;;;;;;4973172;28;20446;-45
2022/07/15 05:30:19;;;;;;;7.60;2.60;;;25.60;45.10;;;;;;4973460;28;20550;-47
2022/07/15 05:32:48;;;;;;;5.40;2.07;;;25.50;42.90;;;;;;4991932;28;20448;-46
2022/07/15 05:35:24;;;;;;;4.57;2.57;;;25.40;42.20;;;;;;4974551;28;20467;-47
2022/07/15 05:37:53;;;;;;;3.80;1.80;;;25.30;42.10;;;;;;4974735;28;20453;-46
2022/07/15 05:40:27;;;;;;;5.00;2.50;;;25.20;42.20;;;;;;4986395;28;20473;-46
2022/07/15 05:42:55;;;;;;;3.80;2.50;;;25.10;43.20;;;;;;4980264;28;20446;-46
2022/07/15 05:45:25;;;;;;;5.37;2.30;;;25.00;43.20;;;;;;4973890;28;20478;-47
2022/07/15 05:47:59;;;;;;;5.57;2.70;;;25.00;41.80;;;;;;4970409;28;20445;-47
2022/07/15 05:50:31;;;;;;;8.20;3.17;;;24.90;42.30;;;;;;4974212;28;20488;-46
2022/07/15 05:53:01;;;;;;;3.77;2.47;;;24.90;41.70;;;;;;4974715;28;20441;-45
2022/07/15 05:55:31;;;;;;;3.73;2.43;;;24.80;42.10;;;;;;4987253;28;20560;-47
2022/07/15 05:57:59;;;;;;;4.43;2.87;;;24.70;42.30;;;;;;4991867;28;20834;-46
2022/07/15 06:00:30;;;;;;;5.17;2.13;;;24.70;42.00;;;;;;4974167;28;20480;-46
2022/07/15 06:02:58;;;;;;;6.67;2.67;;;24.60;42.10;;;;;;4967795;28;20446;-46
2022/07/15 06:05:29;;;;;;;5.27;2.80;;;24.60;42.20;;;;;;4994984;28;20500;-46
2022/07/15 06:08:02;;;;;;;3.67;2.70;;;24.50;42.00;;;;;;4990457;28;20446;-46
2022/07/15 06:10:34;;;;;;;5.63;2.57;;;24.50;42.50;;;;;;4969922;28;20478;-46
2022/07/15 06:13:03;;;;;;;4.43;2.73;;;24.50;42.60;;;;;;4991816;28;20795;-45
2022/07/15 06:15:32;;;;;;;4.23;2.63;;;24.50;42.30;;;;;;4990322;28;20524;-47
2022/07/15 06:18:01;;;;;;;4.60;2.53;;;24.50;42.90;;;;;;4990126;28;20540;-46
2022/07/15 06:20:32;;;;;;;5.87;2.93;;;24.50;42.10;;;;;;4990287;28;20474;-46
2022/07/15 06:23:02;;;;;;;4.13;2.40;;;24.40;42.50;;;;;;4991139;28;20512;-46
2022/07/15 06:25:30;;;;;;;6.40;2.70;;;24.40;42.70;;;;;;4968124;28;20478;-46
2022/07/15 06:27:58;;;;;;;6.67;2.60;;;24.40;42.60;;;;;;4972313;28;20441;-46
2022/07/15 06:30:28;;;;;;;6.90;2.80;;;24.40;42.80;;;;;;4966291;28;20474;-46
2022/07/15 06:32:57;;;;;;;3.63;2.70;;;24.40;42.30;;;;;;4967570;28;20952;-47
2022/07/15 06:35:27;;;;;;;6.53;2.70;;;24.40;43.50;;;;;;4973541;28;20473;-47
2022/07/15 06:37:56;;;;;;;6.60;2.90;;;24.30;42.70;;;;;;4989617;28;20521;-46
2022/07/15 06:40:27;;;;;;;5.33;2.50;;;24.40;42.60;;;;;;4972507;28;20472;-46
2022/07/15 06:42:56;;;;;;;6.37;2.70;;;24.30;42.70;;;;;;4990847;28;21001;-46
2022/07/15 06:45:27;;;;;;;6.77;2.90;;;24.30;42.40;;;;;;4973553;28;20527;-46
2022/07/15 06:47:55;;;;;;;3.23;2.30;;;24.30;42.40;;;;;;4990167;28;20815;-46
2022/07/15 06:50:28;;;;;;;5.17;2.27;;;24.40;42.10;;;;;;4987389;28;20473;-46
2022/07/15 06:52:56;;;;;;;4.30;2.63;;;24.40;42.00;;;;;;4974052;28;20489;-46
2022/07/15 06:55:29;;;;;;;4.77;2.50;;;24.50;42.10;;;;;;4967245;28;20560;-47
2022/07/15 06:57:58;;;;;;;3.77;2.37;;;24.50;43.40;;;;;;4990102;28;20692;-46
2022/07/15 07:00:27;;;;;;;3.60;2.10;;;24.50;41.80;;;;;;4990438;28;20498;-47
2022/07/15 07:02:55;;;;;;;5.60;1.87;;;24.60;42.00;;;;;;4970589;28;20445;-46
2022/07/15 07:05:25;;;;;;;4.43;2.40;;;24.60;41.60;;;;;;4972915;28;20538;-47
2022/07/15 07:07:53;;;;;;;4.97;1.70;;;24.60;41.30;;;;;;4990364;28;20429;-47
2022/07/15 07:10:21;;;;;;;2.00;1.60;;;24.60;41.30;;;;;;4968671;28;20505;-46
2022/07/15 07:12:54;;;;;;;4.77;2.33;;;24.60;41.00;;;;;;4970367;28;20497;-44
2022/07/15 07:15:23;;;;;;;6.30;2.20;;;24.70;41.10;;;;;;4988467;28;20962;-47
2022/07/15 07:17:52;;;;;;;2.80;1.50;;;24.70;40.40;;;;;;4988485;28;20449;-47
2022/07/15 07:20:21;;;;;;;5.63;2.20;;;24.50;40.40;;;;;;4990047;28;20473;-47
2022/07/15 07:22:49;;;;;;;4.10;1.50;;;24.40;40.90;;;;;;4990843;28;20442;-47
2022/07/15 07:25:19;;;;;;;3.40;1.50;;;24.40;41.30;;;;;;4987287;28;20572;-47
2022/07/15 07:27:48;;;;;;;2.30;1.20;;;24.40;41.60;;;;;;4990042;28;20879;-47
2022/07/15 07:30:18;;;;;;;2.97;1.60;;;24.40;41.60;;;;;;4989630;28;20501;-48
2022/07/15 07:32:46;;;;;;;2.33;1.13;;;24.50;41.70;;;;;;4987715;28;20465;-46
2022/07/15 07:35:14;;;;;;;2.77;1.50;;;24.50;41.80;;;;;;4987409;28;20508;-48
2022/07/15 07:37:43;;;;;;;4.30;1.47;;;24.50;41.60;;;;;;4983994;28;20989;-51
2022/07/15 07:40:11;;;;;;;3.00;1.80;;;24.50;41.70;;;;;;4986515;28;20481;-48
2022/07/15 07:42:40;;;;;;;3.70;1.37;;;24.50;41.70;;;;;;4990938;28;20925;-47
2022/07/15 07:45:10;;;;;;;3.10;1.40;;;24.50;41.80;;;;;;4990605;28;20461;-47
2022/07/15 07:47:41;;;;;;;5.00;1.33;;;24.60;42.10;;;;;;4993059;28;20474;-47
2022/07/15 07:50:11;;;;;;;1.90;1.60;;;24.60;42.10;;;;;;4989901;28;20477;-48
2022/07/15 07:52:40;;;;;;;4.97;1.60;;;24.60;42.00;;;;;;4993898;28;20525;-47
2022/07/15 07:55:09;;;;;;;2.87;1.67;;;24.60;42.10;;;;;;4990988;28;20478;-48
2022/07/15 07:57:48;;;;;;;1.90;1.30;;;24.70;42.10;;;;;;4993796;28;20465;-48
2022/07/15 08:00:18;;;;;;;2.83;1.33;;;24.70;42.10;;;;;;4991864;28;20481;-48
2022/07/15 08:02:48;;;;;;;2.00;1.67;;;24.70;41.90;;;;;;4994136;28;20441;-47
2022/07/15 08:05:18;;;;;;;1.80;1.20;;;24.70;41.90;;;;;;4989800;28;20473;-47
2022/07/15 08:07:52;;;;;;;1.80;1.10;;;24.70;42.10;;;;;;4992908;28;20483;-47
2022/07/15 08:10:20;;;;;;;2.10;1.23;;;24.70;41.90;;;;;;4990899;28;20500;-47
2022/07/15 08:13:07;;;;;;;2.73;1.30;;;24.70;42.10;;;;;;4994123;28;21015;-47
2022/07/15 08:15:56;;;;;;;2.57;1.40;;;24.70;42.10;;;;;;4993299;28;20469;-47
2022/07/15 08:18:30;;;;;;;1.23;1.10;;;24.70;42.00;;;;;;4983641;28;20445;-47
2022/07/15 08:20:59;;;;;;;2.00;1.33;;;24.70;43.00;;;;;;4990925;28;20445;-47
2022/07/15 08:23:28;;;;;;;2.90;1.37;;;24.70;42.20;;;;;;4988227;28;20803;-46
2022/07/15 08:25:56;;;;;;;2.90;1.30;;;24.70;41.50;;;;;;4989256;28;20879;-48
2022/07/15 08:28:25;;;;;;;2.17;1.20;;;24.70;41.50;;;;;;4986894;28;20425;-48
2022/07/15 08:31:13;;;;;;;3.60;1.27;;;24.70;41.50;;;;;;4990972;28;20509;-47
2022/07/15 08:33:43;;;;;;;2.33;1.63;;;24.70;41.60;;;;;;4989551;28;20453;-47
2022/07/15 08:36:12;;;;;;;1.33;1.00;;;24.70;41.60;;;;;;4991795;28;20539;-48
2022/07/15 08:38:40;;;;;;;1.37;0.90;;;24.70;41.50;;;;;;4987724;28;20457;-48
2022/07/15 08:41:08;;;;;;;1.83;0.90;;;24.70;41.70;;;;;;4991884;28;20541;-48
2022/07/15 08:43:37;;;;;;;1.83;1.00;;;24.70;41.80;;;;;;4990468;28;20444;-48
2022/07/15 08:46:08;;;;;;;1.40;1.10;;;24.80;41.90;;;;;;4992936;28;20984;-48
2022/07/15 08:48:38;;;;;;;1.30;0.87;;;24.80;41.90;;;;;;4989108;28;20549;-48
2022/07/15 08:51:08;;;;;;;1.53;0.90;;;24.80;42.10;;;;;;4988238;28;21056;-47
2022/07/15 08:53:36;;;;;;;5.20;1.20;;;24.80;42.10;;;;;;4989493;28;20890;-51
2022/07/15 08:56:05;;;;;;;1.30;0.90;;;24.80;42.00;;;;;;4988705;28;20540;-46
2022/07/15 08:58:36;;;;;;;1.90;1.00;;;24.80;42.10;;;;;;4991374;28;20521;-47
2022/07/15 09:01:24;;;;;;;2.80;1.50;;;24.80;41.90;;;;;;4990375;28;20442;-49
2022/07/15 09:03:53;;;;;;;1.10;1.00;;;24.80;41.20;;;;;;4989546;28;20469;-47
2022/07/15 09:06:33;;;;;;;6.80;1.70;;;24.80;41.00;;;;;;4991547;28;20474;-49
2022/07/15 09:09:27;;;;;;;4.17;1.93;;;24.70;39.60;;;;;;4990159;28;20876;-48
2022/07/15 09:12:12;;;;;;;1.67;1.03;;;24.70;39.70;;;;;;4990744;28;20595;-49
2022/07/15 09:14:45;;;;;;;2.23;1.00;;;24.70;40.00;;;;;;4991614;28;20839;-48
2022/07/15 09:17:24;;;;;;;1.63;1.10;;;24.70;40.00;;;;;;4991362;28;20977;-48
2022/07/15 09:20:01;;;;;;;3.77;1.40;;;24.70;40.20;;;;;;4991372;28;21042;-48
2022/07/15 09:22:33;;;;;;;3.43;1.13;;;24.70;40.00;;;;;;4992627;28;20871;-47
2022/07/15 09:25:07;;;;;;;1.00;0.80;;;24.70;40.20;;;;;;4991174;28;20561;-48
2022/07/15 09:27:38;;;;;;;3.00;1.10;;;24.80;40.40;;;;;;4992156;28;20484;-45
2022/07/15 09:36:05;;;;;;;2.53;1.60;;;24.80;40.60;;;;;;4987423;28;20926;-47
2022/07/15 09:38:41;;;;;;;1.60;1.00;;;24.80;39.90;;;;;;4989994;28;20526;-48
2022/07/15 09:41:12;;;;;;;3.20;0.80;;;24.70;40.40;;;;;;4990643;28;20449;-47
2022/07/15 09:43:50;;;;;;;2.77;1.23;;;24.80;40.80;;;;;;4990741;28;20481;-48
2022/07/15 09:46:20;;;;;;;2.00;1.00;;;24.80;40.60;;;;;;4991807;28;20468;-48
2022/07/15 09:48:50;;;;;;;1.90;1.07;;;24.80;41.00;;;;;;4990392;28;20488;-47
2022/07/15 09:51:19;;;;;;;2.87;1.00;;;24.80;40.80;;;;;;4991695;28;20458;-47
2022/07/15 09:53:50;;;;;;;2.40;0.80;;;24.80;40.50;;;;;;4971402;28;20503;-47
2022/07/15 09:56:26;;;;;;;1.63;0.80;;;24.80;40.60;;;;;;4991546;28;21035;-47
2022/07/15 09:58:55;;;;;;;2.07;0.83;;;24.80;40.70;;;;;;4986179;28;20560;-48
2022/07/15 10:01:26;;;;;;;1.43;1.10;;;24.80;41.30;;;;;;4989699;28;20450;-48
2022/07/15 10:03:54;;;;;;;1.93;0.70;;;24.80;40.90;;;;;;4986291;28;20481;-48
2022/07/15 10:06:26;;;;;;;1.67;0.93;;;24.80;41.00;;;;;;4990898;28;20500;-47
2022/07/15 10:08:58;;;;;;;2.23;1.10;;;24.80;41.20;;;;;;4985054;28;20477;-48
2022/07/15 10:11:28;;;;;;;2.07;0.97;;;24.80;41.10;;;;;;4991994;28;20462;-47
2022/07/15 10:14:23;;;;;;;1.97;0.90;;;24.80;40.20;;;;;;4991459;28;20469;-47
2022/07/15 10:17:07;;;;;;;1.60;1.20;;;24.80;41.00;;;;;;4986466;28;20462;-47
2022/07/15 10:19:51;;;;;;;1.87;1.10;;;24.80;40.80;;;;;;4984384;28;20485;-49
2022/07/15 10:22:34;;;;;;;1.50;1.10;;;24.80;41.00;;;;;;4990583;28;20825;-47
2022/07/15 10:25:16;;;;;;;1.20;0.90;;;24.80;40.90;;;;;;4988785;28;20484;-48
2022/07/15 10:27:53;;;;;;;1.73;1.00;;;24.80;41.20;;;;;;4989337;28;20456;-47
2022/07/15 10:30:23;;;;;;;2.70;0.90;;;24.80;41.30;;;;;;4989991;28;20484;-48
2022/07/15 10:33:13;;;;;;;3.60;1.00;;;24.80;41.60;;;;;;4990892;28;20532;-48
2022/07/15 10:35:45;;;;;;;1.77;1.00;;;24.80;41.60;;;;;;4989714;28;20474;-47
2022/07/15 10:38:28;;;;;;;1.40;1.03;;;24.80;41.60;;;;;;5029888;22;20587;-48
2022/07/15 10:41:00;;;;;;;1.77;1.20;;;24.80;41.10;;;;;;5011177;28;20456;-48
2022/07/15 10:43:45;;;;;;;1.00;0.80;;;24.80;41.30;;;;;;5017142;28;20464;-48
2022/07/15 10:46:23;;;;;;;0.87;0.83;;;24.80;41.60;;;;;;5010896;28;20500;-48
2022/07/15 10:49:14;;;;;;;1.10;1.00;;;24.80;41.80;;;;;;5022361;28;20460;-48
2022/07/15 10:51:47;;;;;;;1.07;0.97;;;24.80;41.10;;;;;;5018931;28;20964;-48
2022/07/15 10:54:42;;;;;;;2.50;0.90;;;24.80;41.60;;;;;;5023688;28;20535;-48
2022/07/15 10:57:15;;;;;;;0.83;0.50;;;24.80;41.40;;;;;;5021363;28;20468;-48
2022/07/15 10:59:55;;;;;;;1.43;0.80;;;24.80;41.40;;;;;;5030728;28;20989;-48
2022/07/15 11:02:26;;;;;;;1.83;0.80;;;24.80;41.20;;;;;;5030384;28;20566;-49
2022/07/15 11:05:19;;;;;;;1.47;1.00;;;24.80;39.90;;;;;;5028590;28;20468;-48
2022/07/15 11:07:47;;;;;;;1.80;1.20;;;24.80;39.30;;;;;;5009900;28;20456;-48
2022/07/15 11:10:21;;;;;;;1.53;0.83;;;24.80;40.00;;;;;;5022189;28;20494;-47
2022/07/15 11:13:06;;;;;;;2.80;0.93;;;24.80;41.00;;;;;;5025600;28;20514;-48
2022/07/15 11:15:35;;;;;;;1.87;1.00;;;24.80;42.50;;;;;;5029191;28;20467;-48
2022/07/15 11:18:03;;;;;;;0.93;0.80;;;24.80;41.70;;;;;;5021707;28;20460;-47
2022/07/15 11:20:42;;;;;;;1.40;0.77;;;24.80;41.60;;;;;;5021451;28;20471;-50
2022/07/15 11:23:10;;;;;;;1.90;1.23;;;24.80;41.60;;;;;;5022136;28;20455;-48
2022/07/15 11:25:48;;;;;;;2.17;1.30;;;24.80;41.70;;;;;;5022285;28;20480;-48
2022/07/15 11:28:18;;;;;;;1.47;1.00;;;24.90;41.30;;;;;;5027809;28;21010;-48
2022/07/15 11:30:49;;;;;;;2.70;0.90;;;24.80;41.20;;;;;;5028685;28;20522;-48
2022/07/15 11:33:19;;;;;;;1.03;0.70;;;24.80;41.40;;;;;;5015718;28;20471;-46
2022/07/15 11:35:50;;;;;;;1.33;0.60;;;24.80;41.90;;;;;;5025656;28;20460;-48
2022/07/15 11:38:22;;;;;;;1.70;1.00;;;24.90;41.80;;;;;;5026447;28;20513;-47
2022/07/15 11:46:29;;;;;;;1.33;0.93;;;24.90;41.10;;;;;;5017181;28;20460;-48
2022/07/15 11:48:59;;;;;;;1.90;1.20;;;24.90;41.50;;;;;;5021294;28;20871;-47
2022/07/15 11:51:29;;;;;;;2.80;1.20;;;24.90;40.20;;;;;;5010081;28;20452;-48
2022/07/15 11:53:59;;;;;;;1.00;0.90;;;24.70;39.10;;;;;;5013056;28;20465;-48
2022/07/15 11:56:27;;;;;;;2.70;1.20;;;24.70;39.40;;;;;;5026563;28;20859;-48
2022/07/15 11:58:58;;;;;;;0.70;0.57;;;24.70;39.60;;;;;;5010142;28;20460;-48
2022/07/15 12:01:28;;;;;;;0.80;0.80;;;24.70;40.20;;;;;;5018425;28;20444;-48
2022/07/15 12:03:58;;;;;;;1.37;0.80;;;24.70;39.90;;;;;;5017428;28;20514;-48
2022/07/15 12:06:29;;;;;;;1.33;0.80;;;24.80;39.20;;;;;;5024976;28;20465;-48
2022/07/15 12:08:59;;;;;;;1.10;0.77;;;24.80;39.80;;;;;;5018973;28;21062;-48
2022/07/15 12:11:30;;;;;;;1.30;0.90;;;24.80;40.20;;;;;;5022223;28;20425;-48
2022/07/15 12:14:01;;;;;;;1.70;0.70;;;24.80;40.50;;;;;;5027999;28;20465;-48
2022/07/15 12:16:33;;;;;;;1.20;0.77;;;24.80;40.80;;;;;;5026898;28;20451;-48
2022/07/15 12:19:05;;;;;;;2.10;0.80;;;24.90;40.80;;;;;;5024377;28;20478;-48
2022/07/15 12:21:36;;;;;;;1.87;0.70;;;24.90;45.10;;;;;;5025513;28;20448;-47
2022/07/15 12:24:08;;;;;;;1.43;0.87;;;24.90;40.30;;;;;;5021583;28;20526;-48
2022/07/15 12:26:39;;;;;;;1.10;0.70;;;24.90;40.40;;;;;;5022596;28;20455;-48
2022/07/15 12:29:13;;;;;;;2.30;0.73;;;24.90;41.10;;;;;;5026666;28;20978;-48
2022/07/15 12:31:43;;;;;;;1.13;0.77;;;24.90;41.00;;;;;;5013350;28;20528;-48
2022/07/15 12:34:12;;;;;;;1.00;0.90;;;24.90;41.30;;;;;;5020714;28;20476;-48
2022/07/15 12:36:40;;;;;;;1.67;0.80;;;24.90;41.00;;;;;;5017970;28;20831;-48
2022/07/15 12:39:12;;;;;;;1.50;1.20;;;24.90;41.30;;;;;;5021844;28;20518;-48
2022/07/15 12:42:02;;;;;;;4.03;0.90;;;24.90;41.40;;;;;;5021791;28;20565;-48
2022/07/15 12:44:32;;;;;;;0.77;0.70;;;24.90;41.30;;;;;;5015419;28;20464;-47
2022/07/15 12:47:06;;;;;;;1.00;0.90;;;24.90;41.40;;;;;;5029246;28;20463;-48
2022/07/15 12:49:45;;;;;;;1.50;0.77;;;24.90;41.70;;;;;;5024698;28;20546;-47
2022/07/15 12:52:22;;;;;;;2.00;0.93;;;24.90;42.00;;;;;;5033253;28;20431;-48
2022/07/15 12:54:52;;;;;;;1.97;0.67;;;24.90;40.90;;;;;;5022705;28;20491;-48
2022/07/15 14:01:58;;;;;;;1.30;1.03;;;24.90;41.50;;;;;;5121442;27;20596;-47
2022/07/15 14:04:26;;;;;;;0.73;0.73;;;24.90;42.80;;;;;;5107748;27;20496;-47
2022/07/15 14:06:55;;;;;;;1.03;0.70;;;24.90;42.70;;;;;;5084551;28;20648;-48
2022/07/15 14:09:23;;;;;;;1.00;0.60;;;24.90;42.70;;;;;;5082462;28;20465;-48
2022/07/15 14:11:51;;;;;;;0.80;0.50;;;25.00;43.00;;;;;;5087837;28;20913;-49
2022/07/15 14:14:19;;;;;;;0.83;0.67;;;25.00;43.10;;;;;;5087319;28;20466;-48
2022/07/15 14:16:48;;;;;;;1.30;0.70;;;25.00;43.00;;;;;;5084518;28;20488;-48
2022/07/15 14:19:18;;;;;;;1.10;0.80;;;25.00;42.70;;;;;;5081212;28;20546;-47
2022/07/15 14:21:46;;;;;;;1.93;0.80;;;25.00;43.00;;;;;;5086827;28;20465;-48
2022/07/15 14:24:21;;;;;;;2.03;0.93;;;25.00;43.00;;;;;;5082673;28;20462;-49
2022/07/15 14:26:50;;;;;;;0.93;0.60;;;25.00;42.40;;;;;;5087053;28;20457;-49
2022/07/15 14:29:18;;;;;;;1.00;0.70;;;25.00;42.30;;;;;;5086474;28;20481;-49
2022/07/15 14:31:47;;;;;;;0.80;0.63;;;25.10;42.70;;;;;;5087825;28;20438;-48